Main page
METAR-TAF:

METAR-TAF

Airports :

Oseberg, Norway

Oil platform Norsk Hydro

latitude: 60-29-29N, longitude: 2-49-32E, elevation: 158 m

Current weather observation

The report was made 1 hour and 21 minutes ago, at 00:50 UTC
Wind 20 kt from the North/Northeast
Temperature 12°C
Humidity 88%
Pressure 1006 hPa
Visibility 10 km or more
no clouds below 1500 m and no cumulonimbus

METAR: ENOA 290050Z 03020KT CAVOK 12/10 Q1006 W///S4

Time: 04:11 (02:11 UTC)

Forecast

Forecast valid from 29 at 00 UTC to 29 at 24 UTC
Wind 15 kt from the North/Northeast
Visibility 10 km or more
no clouds below 1500 m and no cumulonimbus

TAF: ENOA 2900/2924 03015KT CAVOK

Weather observations and forecasts of more than 4000 airports (METAR and TAF reports).

The available stations are represented by yellow and red dots on the map.

Hover mouse over dot to see the name of the station.

Then click to see weather observations and forecasts.

To change the map : click on the green buttons with a black cross to zoom in, on the green button with a dash to zoom out, or on the green arrows for adjacent maps.


METAR-TAF: